sensor_id;sensor_type;location;lat;lon;timestamp;P1;durP1;ratioP1;P2;durP2;ratioP2
16115;SDS011;8162;47.104;15.432;2023-02-26T00:02:31;5.80;;;4.63;;
16115;SDS011;8162;47.104;15.432;2023-02-26T00:05:33;5.13;;;4.60;;
16115;SDS011;8162;47.104;15.432;2023-02-26T00:08:34;5.50;;;5.00;;
16115;SDS011;8162;47.104;15.432;2023-02-26T00:11:35;7.67;;;5.27;;
16115;SDS011;8162;47.104;15.432;2023-02-26T00:14:36;5.57;;;5.07;;
16115;SDS011;8162;47.104;15.432;2023-02-26T00:17:48;4.97;;;4.47;;
16115;SDS011;8162;47.104;15.432;2023-02-26T00:20:51;6.13;;;5.40;;
16115;SDS011;8162;47.104;15.432;2023-02-26T00:23:53;7.20;;;6.57;;
16115;SDS011;8162;47.104;15.432;2023-02-26T00:26:54;6.20;;;5.57;;
16115;SDS011;8162;47.104;15.432;2023-02-26T00:29:55;8.00;;;6.17;;
16115;SDS011;8162;47.104;15.432;2023-02-26T00:32:56;6.40;;;5.80;;
16115;SDS011;8162;47.104;15.432;2023-02-26T00:42:18;7.00;;;5.97;;
16115;SDS011;8162;47.104;15.432;2023-02-26T00:45:19;7.93;;;7.13;;
16115;SDS011;8162;47.104;15.432;2023-02-26T00:54:32;10.10;;;7.63;;
16115;SDS011;8162;47.104;15.432;2023-02-26T00:57:34;10.67;;;8.10;;
16115;SDS011;8162;47.104;15.432;2023-02-26T01:00:35;7.27;;;6.57;;
16115;SDS011;8162;47.104;15.432;2023-02-26T01:03:36;5.17;;;4.67;;
16115;SDS011;8162;47.104;15.432;2023-02-26T01:06:44;11.10;;;8.60;;
16115;SDS011;8162;47.104;15.432;2023-02-26T01:09:46;10.90;;;8.20;;
16115;SDS011;8162;47.104;15.432;2023-02-26T01:12:47;8.17;;;6.67;;
16115;SDS011;8162;47.104;15.432;2023-02-26T01:15:53;6.60;;;6.00;;
16115;SDS011;8162;47.104;15.432;2023-02-26T01:18:58;7.47;;;6.53;;
16115;SDS011;8162;47.104;15.432;2023-02-26T01:22:03;8.83;;;6.10;;
16115;SDS011;8162;47.104;15.432;2023-02-26T01:25:08;6.30;;;5.63;;
16115;SDS011;8162;47.104;15.432;2023-02-26T01:28:09;6.07;;;5.47;;
16115;SDS011;8162;47.104;15.432;2023-02-26T01:31:59;6.33;;;5.47;;
16115;SDS011;8162;47.104;15.432;2023-02-26T01:47:50;6.03;;;4.80;;
16115;SDS011;8162;47.104;15.432;2023-02-26T01:50:53;4.93;;;4.33;;
16115;SDS011;8162;47.104;15.432;2023-02-26T01:53:54;3.97;;;3.50;;
16115;SDS011;8162;47.104;15.432;2023-02-26T01:57:06;5.87;;;4.60;;
16115;SDS011;8162;47.104;15.432;2023-02-26T02:00:07;5.33;;;4.60;;
16115;SDS011;8162;47.104;15.432;2023-02-26T02:03:09;6.30;;;4.97;;
16115;SDS011;8162;47.104;15.432;2023-02-26T02:06:15;5.50;;;4.23;;
16115;SDS011;8162;47.104;15.432;2023-02-26T02:09:17;3.87;;;3.47;;
16115;SDS011;8162;47.104;15.432;2023-02-26T02:12:35;4.97;;;3.60;;
16115;SDS011;8162;47.104;15.432;2023-02-26T02:15:43;3.70;;;3.30;;
16115;SDS011;8162;47.104;15.432;2023-02-26T02:31:27;4.70;;;4.00;;
16115;SDS011;8162;47.104;15.432;2023-02-26T02:34:33;5.20;;;4.17;;
16115;SDS011;8162;47.104;15.432;2023-02-26T02:40:40;4.73;;;4.23;;
16115;SDS011;8162;47.104;15.432;2023-02-26T02:43:43;4.87;;;4.17;;
16115;SDS011;8162;47.104;15.432;2023-02-26T02:46:45;4.27;;;3.87;;
16115;SDS011;8162;47.104;15.432;2023-02-26T02:49:49;5.03;;;4.17;;
16115;SDS011;8162;47.104;15.432;2023-02-26T02:53:01;4.20;;;3.77;;
16115;SDS011;8162;47.104;15.432;2023-02-26T02:59:19;3.13;;;2.83;;
16115;SDS011;8162;47.104;15.432;2023-02-26T03:05:30;3.10;;;2.80;;
16115;SDS011;8162;47.104;15.432;2023-02-26T03:08:33;3.00;;;2.70;;
16115;SDS011;8162;47.104;15.432;2023-02-26T03:11:36;2.23;;;2.10;;
16115;SDS011;8162;47.104;15.432;2023-02-26T03:14:37;2.57;;;2.37;;
16115;SDS011;8162;47.104;15.432;2023-02-26T03:17:42;3.70;;;3.07;;
16115;SDS011;8162;47.104;15.432;2023-02-26T03:21:48;2.83;;;2.60;;
16115;SDS011;8162;47.104;15.432;2023-02-26T03:27:40;2.80;;;2.60;;
16115;SDS011;8162;47.104;15.432;2023-02-26T03:37:03;2.50;;;2.30;;
16115;SDS011;8162;47.104;15.432;2023-02-26T03:40:17;4.10;;;3.50;;
16115;SDS011;8162;47.104;15.432;2023-02-26T03:43:22;4.77;;;4.23;;
16115;SDS011;8162;47.104;15.432;2023-02-26T03:46:26;4.60;;;4.20;;
16115;SDS011;8162;47.104;15.432;2023-02-26T03:49:33;4.20;;;3.87;;
16115;SDS011;8162;47.104;15.432;2023-02-26T03:52:36;4.53;;;4.13;;
16115;SDS011;8162;47.104;15.432;2023-02-26T03:55:41;4.97;;;4.47;;
16115;SDS011;8162;47.104;15.432;2023-02-26T03:58:44;4.97;;;4.47;;
16115;SDS011;8162;47.104;15.432;2023-02-26T04:02:04;4.83;;;4.43;;
16115;SDS011;8162;47.104;15.432;2023-02-26T04:05:10;4.93;;;4.23;;
16115;SDS011;8162;47.104;15.432;2023-02-26T04:08:12;4.03;;;3.63;;
16115;SDS011;8162;47.104;15.432;2023-02-26T04:11:14;3.80;;;3.37;;
16115;SDS011;8162;47.104;15.432;2023-02-26T04:14:16;3.47;;;3.13;;
16115;SDS011;8162;47.104;15.432;2023-02-26T04:17:17;3.67;;;3.37;;
16115;SDS011;8162;47.104;15.432;2023-02-26T04:20:18;3.57;;;3.27;;
16115;SDS011;8162;47.104;15.432;2023-02-26T04:23:19;4.00;;;3.53;;
16115;SDS011;8162;47.104;15.432;2023-02-26T04:26:21;4.37;;;3.53;;
16115;SDS011;8162;47.104;15.432;2023-02-26T04:29:22;3.93;;;3.53;;
16115;SDS011;8162;47.104;15.432;2023-02-26T04:32:23;4.20;;;3.80;;
16115;SDS011;8162;47.104;15.432;2023-02-26T04:35:24;4.23;;;3.73;;
16115;SDS011;8162;47.104;15.432;2023-02-26T04:38:25;3.87;;;3.00;;
16115;SDS011;8162;47.104;15.432;2023-02-26T04:41:26;2.60;;;2.40;;
16115;SDS011;8162;47.104;15.432;2023-02-26T04:44:27;2.63;;;2.33;;
16115;SDS011;8162;47.104;15.432;2023-02-26T04:47:28;2.17;;;1.93;;
16115;SDS011;8162;47.104;15.432;2023-02-26T04:50:29;2.10;;;1.90;;
16115;SDS011;8162;47.104;15.432;2023-02-26T04:53:30;1.57;;;1.47;;
16115;SDS011;8162;47.104;15.432;2023-02-26T04:56:31;1.50;;;1.30;;
16115;SDS011;8162;47.104;15.432;2023-02-26T04:59:32;1.63;;;1.53;;
16115;SDS011;8162;47.104;15.432;2023-02-26T05:02:33;1.70;;;1.50;;
16115;SDS011;8162;47.104;15.432;2023-02-26T05:05:34;1.87;;;1.60;;
16115;SDS011;8162;47.104;15.432;2023-02-26T05:08:36;1.80;;;1.67;;
16115;SDS011;8162;47.104;15.432;2023-02-26T05:11:41;2.20;;;2.00;;
16115;SDS011;8162;47.104;15.432;2023-02-26T05:14:42;1.90;;;1.70;;
16115;SDS011;8162;47.104;15.432;2023-02-26T05:17:43;2.00;;;1.90;;
16115;SDS011;8162;47.104;15.432;2023-02-26T05:20:44;1.70;;;1.60;;
16115;SDS011;8162;47.104;15.432;2023-02-26T05:23:58;2.00;;;1.80;;
16115;SDS011;8162;47.104;15.432;2023-02-26T05:26:59;2.30;;;2.10;;
16115;SDS011;8162;47.104;15.432;2023-02-26T05:30:00;1.97;;;1.87;;
16115;SDS011;8162;47.104;15.432;2023-02-26T05:33:01;2.83;;;1.87;;
16115;SDS011;8162;47.104;15.432;2023-02-26T05:36:03;3.40;;;1.97;;
16115;SDS011;8162;47.104;15.432;2023-02-26T05:39:06;2.00;;;1.80;;
16115;SDS011;8162;47.104;15.432;2023-02-26T05:42:07;1.60;;;1.50;;
16115;SDS011;8162;47.104;15.432;2023-02-26T05:45:08;1.93;;;1.67;;
16115;SDS011;8162;47.104;15.432;2023-02-26T05:48:09;2.13;;;1.80;;
16115;SDS011;8162;47.104;15.432;2023-02-26T05:51:10;1.70;;;1.60;;
16115;SDS011;8162;47.104;15.432;2023-02-26T05:54:11;2.00;;;1.90;;
16115;SDS011;8162;47.104;15.432;2023-02-26T05:57:12;2.57;;;2.17;;
16115;SDS011;8162;47.104;15.432;2023-02-26T06:00:13;2.03;;;1.80;;
16115;SDS011;8162;47.104;15.432;2023-02-26T06:03:15;2.33;;;2.13;;
16115;SDS011;8162;47.104;15.432;2023-02-26T06:06:18;2.43;;;2.23;;
16115;SDS011;8162;47.104;15.432;2023-02-26T06:09:20;2.17;;;1.97;;
16115;SDS011;8162;47.104;15.432;2023-02-26T06:12:21;2.10;;;1.90;;
16115;SDS011;8162;47.104;15.432;2023-02-26T06:15:22;2.90;;;2.10;;
16115;SDS011;8162;47.104;15.432;2023-02-26T06:18:23;2.07;;;1.80;;
16115;SDS011;8162;47.104;15.432;2023-02-26T06:21:24;2.30;;;1.97;;
16115;SDS011;8162;47.104;15.432;2023-02-26T06:24:25;3.17;;;2.50;;
16115;SDS011;8162;47.104;15.432;2023-02-26T06:27:27;2.40;;;2.20;;
16115;SDS011;8162;47.104;15.432;2023-02-26T06:30:28;2.37;;;2.17;;
16115;SDS011;8162;47.104;15.432;2023-02-26T06:33:29;2.33;;;2.10;;
16115;SDS011;8162;47.104;15.432;2023-02-26T06:36:30;2.17;;;1.97;;
16115;SDS011;8162;47.104;15.432;2023-02-26T06:39:31;2.20;;;2.00;;
16115;SDS011;8162;47.104;15.432;2023-02-26T06:42:32;2.53;;;2.30;;
16115;SDS011;8162;47.104;15.432;2023-02-26T06:45:33;2.33;;;2.13;;
16115;SDS011;8162;47.104;15.432;2023-02-26T06:48:35;2.50;;;1.97;;
16115;SDS011;8162;47.104;15.432;2023-02-26T06:51:36;2.23;;;2.10;;
16115;SDS011;8162;47.104;15.432;2023-02-26T06:54:37;1.97;;;1.87;;
16115;SDS011;8162;47.104;15.432;2023-02-26T06:57:38;2.27;;;2.07;;
16115;SDS011;8162;47.104;15.432;2023-02-26T07:00:39;2.40;;;2.20;;
16115;SDS011;8162;47.104;15.432;2023-02-26T07:06:44;2.40;;;2.20;;
16115;SDS011;8162;47.104;15.432;2023-02-26T07:09:45;2.10;;;1.90;;
16115;SDS011;8162;47.104;15.432;2023-02-26T07:12:46;1.80;;;1.70;;
16115;SDS011;8162;47.104;15.432;2023-02-26T07:15:47;2.83;;;2.60;;
16115;SDS011;8162;47.104;15.432;2023-02-26T07:18:48;2.33;;;2.13;;
16115;SDS011;8162;47.104;15.432;2023-02-26T07:21:49;2.23;;;2.03;;
16115;SDS011;8162;47.104;15.432;2023-02-26T07:24:50;3.87;;;2.37;;
16115;SDS011;8162;47.104;15.432;2023-02-26T07:27:51;2.37;;;2.17;;
16115;SDS011;8162;47.104;15.432;2023-02-26T07:30:53;4.73;;;2.23;;
16115;SDS011;8162;47.104;15.432;2023-02-26T07:33:55;1.73;;;1.63;;
16115;SDS011;8162;47.104;15.432;2023-02-26T07:36:56;2.00;;;1.80;;
16115;SDS011;8162;47.104;15.432;2023-02-26T07:40:00;2.23;;;2.03;;
16115;SDS011;8162;47.104;15.432;2023-02-26T07:43:01;2.13;;;1.73;;
16115;SDS011;8162;47.104;15.432;2023-02-26T07:46:02;2.00;;;1.77;;
16115;SDS011;8162;47.104;15.432;2023-02-26T07:49:04;1.80;;;1.70;;
16115;SDS011;8162;47.104;15.432;2023-02-26T07:52:05;3.53;;;2.00;;
16115;SDS011;8162;47.104;15.432;2023-02-26T07:55:07;2.30;;;2.10;;
16115;SDS011;8162;47.104;15.432;2023-02-26T07:58:08;1.77;;;1.67;;
16115;SDS011;8162;47.104;15.432;2023-02-26T08:01:09;2.43;;;1.87;;
16115;SDS011;8162;47.104;15.432;2023-02-26T08:04:10;1.60;;;1.50;;
16115;SDS011;8162;47.104;15.432;2023-02-26T08:07:12;1.90;;;1.80;;
16115;SDS011;8162;47.104;15.432;2023-02-26T08:10:13;1.63;;;1.53;;
16115;SDS011;8162;47.104;15.432;2023-02-26T08:13:14;1.67;;;1.53;;
16115;SDS011;8162;47.104;15.432;2023-02-26T08:16:15;2.23;;;1.40;;
16115;SDS011;8162;47.104;15.432;2023-02-26T08:19:16;1.87;;;1.73;;
16115;SDS011;8162;47.104;15.432;2023-02-26T08:22:17;1.40;;;1.30;;
16115;SDS011;8162;47.104;15.432;2023-02-26T08:25:18;2.00;;;1.50;;
16115;SDS011;8162;47.104;15.432;2023-02-26T08:28:19;1.57;;;1.47;;
16115;SDS011;8162;47.104;15.432;2023-02-26T08:31:20;2.53;;;1.77;;
16115;SDS011;8162;47.104;15.432;2023-02-26T08:34:21;1.83;;;1.70;;
16115;SDS011;8162;47.104;15.432;2023-02-26T08:37:22;1.23;;;1.13;;
16115;SDS011;8162;47.104;15.432;2023-02-26T08:40:23;1.93;;;1.53;;
16115;SDS011;8162;47.104;15.432;2023-02-26T08:43:25;2.67;;;1.60;;
16115;SDS011;8162;47.104;15.432;2023-02-26T08:46:26;1.33;;;1.23;;
16115;SDS011;8162;47.104;15.432;2023-02-26T08:49:27;1.53;;;1.43;;
16115;SDS011;8162;47.104;15.432;2023-02-26T08:52:28;1.87;;;1.70;;
16115;SDS011;8162;47.104;15.432;2023-02-26T08:55:30;2.03;;;1.60;;
16115;SDS011;8162;47.104;15.432;2023-02-26T08:58:31;1.67;;;1.57;;
16115;SDS011;8162;47.104;15.432;2023-02-26T09:01:32;1.80;;;1.60;;
16115;SDS011;8162;47.104;15.432;2023-02-26T09:04:33;1.73;;;1.63;;
16115;SDS011;8162;47.104;15.432;2023-02-26T09:07:34;1.80;;;1.70;;
16115;SDS011;8162;47.104;15.432;2023-02-26T09:10:35;2.03;;;1.80;;
16115;SDS011;8162;47.104;15.432;2023-02-26T09:13:36;1.50;;;1.40;;
16115;SDS011;8162;47.104;15.432;2023-02-26T09:16:37;1.80;;;1.60;;
16115;SDS011;8162;47.104;15.432;2023-02-26T09:19:38;1.80;;;1.67;;
16115;SDS011;8162;47.104;15.432;2023-02-26T09:22:39;1.97;;;1.83;;
16115;SDS011;8162;47.104;15.432;2023-02-26T09:25:40;1.33;;;1.23;;
16115;SDS011;8162;47.104;15.432;2023-02-26T09:28:41;1.60;;;1.50;;
16115;SDS011;8162;47.104;15.432;2023-02-26T09:31:43;1.77;;;1.60;;
16115;SDS011;8162;47.104;15.432;2023-02-26T09:34:44;2.20;;;1.80;;
16115;SDS011;8162;47.104;15.432;2023-02-26T09:37:45;2.67;;;2.13;;
16115;SDS011;8162;47.104;15.432;2023-02-26T09:40:57;2.00;;;1.80;;
16115;SDS011;8162;47.104;15.432;2023-02-26T09:47:30;1.50;;;1.27;;
16115;SDS011;8162;47.104;15.432;2023-02-26T09:50:40;1.60;;;1.13;;
16115;SDS011;8162;47.104;15.432;2023-02-26T09:53:41;1.00;;;1.00;;
16115;SDS011;8162;47.104;15.432;2023-02-26T09:56:43;1.27;;;1.17;;
16115;SDS011;8162;47.104;15.432;2023-02-26T09:59:45;1.43;;;1.30;;
16115;SDS011;8162;47.104;15.432;2023-02-26T10:21:13;1.00;;;0.90;;
16115;SDS011;8162;47.104;15.432;2023-02-26T10:24:23;1.00;;;0.90;;
16115;SDS011;8162;47.104;15.432;2023-02-26T10:31:24;1.13;;;0.97;;
16115;SDS011;8162;47.104;15.432;2023-02-26T10:37:38;1.30;;;1.10;;
16115;SDS011;8162;47.104;15.432;2023-02-26T10:43:48;1.10;;;1.10;;
16115;SDS011;8162;47.104;15.432;2023-02-26T10:47:03;0.87;;;0.87;;
16115;SDS011;8162;47.104;15.432;2023-02-26T10:50:11;1.30;;;0.90;;
16115;SDS011;8162;47.104;15.432;2023-02-26T10:53:13;0.87;;;0.87;;
16115;SDS011;8162;47.104;15.432;2023-02-26T10:56:32;1.00;;;1.00;;
16115;SDS011;8162;47.104;15.432;2023-02-26T10:59:34;1.30;;;0.80;;
16115;SDS011;8162;47.104;15.432;2023-02-26T11:05:39;1.10;;;1.00;;
16115;SDS011;8162;47.104;15.432;2023-02-26T11:08:42;0.83;;;0.70;;
16115;SDS011;8162;47.104;15.432;2023-02-26T11:11:52;0.70;;;0.70;;
16115;SDS011;8162;47.104;15.432;2023-02-26T11:14:53;1.13;;;1.03;;
16115;SDS011;8162;47.104;15.432;2023-02-26T11:17:55;0.83;;;0.83;;
16115;SDS011;8162;47.104;15.432;2023-02-26T11:20:57;0.83;;;0.83;;
16115;SDS011;8162;47.104;15.432;2023-02-26T11:24:06;0.97;;;0.80;;
16115;SDS011;8162;47.104;15.432;2023-02-26T11:27:13;0.87;;;0.87;;
16115;SDS011;8162;47.104;15.432;2023-02-26T11:30:21;1.00;;;1.00;;
16115;SDS011;8162;47.104;15.432;2023-02-26T11:33:33;0.73;;;0.73;;
16115;SDS011;8162;47.104;15.432;2023-02-26T11:36:37;1.10;;;1.00;;
16115;SDS011;8162;47.104;15.432;2023-02-26T11:39:38;0.70;;;0.70;;
16115;SDS011;8162;47.104;15.432;2023-02-26T11:42:53;0.80;;;0.80;;
16115;SDS011;8162;47.104;15.432;2023-02-26T11:45:59;0.60;;;0.60;;
16115;SDS011;8162;47.104;15.432;2023-02-26T11:49:01;0.80;;;0.80;;
16115;SDS011;8162;47.104;15.432;2023-02-26T11:52:14;0.60;;;0.60;;
16115;SDS011;8162;47.104;15.432;2023-02-26T11:55:17;0.73;;;0.73;;
16115;SDS011;8162;47.104;15.432;2023-02-26T11:58:20;1.00;;;0.83;;
16115;SDS011;8162;47.104;15.432;2023-02-26T12:01:25;0.73;;;0.73;;
16115;SDS011;8162;47.104;15.432;2023-02-26T12:04:26;1.77;;;0.63;;
16115;SDS011;8162;47.104;15.432;2023-02-26T12:07:27;0.67;;;0.67;;
16115;SDS011;8162;47.104;15.432;2023-02-26T12:10:41;0.50;;;0.50;;
16115;SDS011;8162;47.104;15.432;2023-02-26T12:16:57;0.63;;;0.63;;
16115;SDS011;8162;47.104;15.432;2023-02-26T12:26:46;0.80;;;0.70;;
16115;SDS011;8162;47.104;15.432;2023-02-26T12:36:20;0.50;;;0.50;;
16115;SDS011;8162;47.104;15.432;2023-02-26T12:46:31;0.80;;;0.73;;
16115;SDS011;8162;47.104;15.432;2023-02-26T12:49:43;0.60;;;0.60;;
16115;SDS011;8162;47.104;15.432;2023-02-26T12:56:23;1.93;;;1.00;;
16115;SDS011;8162;47.104;15.432;2023-02-26T12:59:40;1.40;;;1.10;;
16115;SDS011;8162;47.104;15.432;2023-02-26T13:02:54;0.80;;;0.80;;
16115;SDS011;8162;47.104;15.432;2023-02-26T13:09:24;0.70;;;0.70;;
16115;SDS011;8162;47.104;15.432;2023-02-26T13:15:42;0.70;;;0.70;;
16115;SDS011;8162;47.104;15.432;2023-02-26T13:21:48;0.70;;;0.70;;
16115;SDS011;8162;47.104;15.432;2023-02-26T13:27:52;0.80;;;0.80;;
16115;SDS011;8162;47.104;15.432;2023-02-26T13:30:55;0.70;;;0.70;;
16115;SDS011;8162;47.104;15.432;2023-02-26T13:33:57;0.80;;;0.80;;
16115;SDS011;8162;47.104;15.432;2023-02-26T13:36:59;0.80;;;0.80;;
16115;SDS011;8162;47.104;15.432;2023-02-26T13:46:32;0.93;;;0.60;;
16115;SDS011;8162;47.104;15.432;2023-02-26T13:49:47;0.70;;;0.70;;
16115;SDS011;8162;47.104;15.432;2023-02-26T13:56:04;0.73;;;0.73;;
16115;SDS011;8162;47.104;15.432;2023-02-26T14:05:31;0.50;;;0.50;;
16115;SDS011;8162;47.104;15.432;2023-02-26T14:11:44;0.60;;;0.60;;
16115;SDS011;8162;47.104;15.432;2023-02-26T14:18:17;1.20;;;0.60;;
16115;SDS011;8162;47.104;15.432;2023-02-26T14:24:31;0.80;;;0.80;;
16115;SDS011;8162;47.104;15.432;2023-02-26T14:27:41;0.70;;;0.70;;
16115;SDS011;8162;47.104;15.432;2023-02-26T14:30:46;0.80;;;0.80;;
16115;SDS011;8162;47.104;15.432;2023-02-26T14:34:07;0.83;;;0.83;;
16115;SDS011;8162;47.104;15.432;2023-02-26T14:37:10;0.80;;;0.80;;
16115;SDS011;8162;47.104;15.432;2023-02-26T14:40:14;0.83;;;0.83;;
16115;SDS011;8162;47.104;15.432;2023-02-26T14:43:20;1.23;;;1.00;;
16115;SDS011;8162;47.104;15.432;2023-02-26T14:46:23;1.70;;;0.90;;
16115;SDS011;8162;47.104;15.432;2023-02-26T14:49:37;0.80;;;0.80;;
16115;SDS011;8162;47.104;15.432;2023-02-26T14:52:49;0.60;;;0.60;;
16115;SDS011;8162;47.104;15.432;2023-02-26T14:56:00;0.90;;;0.87;;
16115;SDS011;8162;47.104;15.432;2023-02-26T15:05:32;1.03;;;1.00;;
16115;SDS011;8162;47.104;15.432;2023-02-26T15:11:44;1.30;;;1.20;;
16115;SDS011;8162;47.104;15.432;2023-02-26T15:14:50;0.80;;;0.80;;
16115;SDS011;8162;47.104;15.432;2023-02-26T15:21:00;1.00;;;0.90;;
16115;SDS011;8162;47.104;15.432;2023-02-26T15:24:03;0.90;;;0.80;;
16115;SDS011;8162;47.104;15.432;2023-02-26T15:27:07;0.83;;;0.83;;
16115;SDS011;8162;47.104;15.432;2023-02-26T15:30:13;0.80;;;0.80;;
16115;SDS011;8162;47.104;15.432;2023-02-26T15:33:19;1.13;;;1.13;;
16115;SDS011;8162;47.104;15.432;2023-02-26T15:36:20;1.13;;;1.03;;
16115;SDS011;8162;47.104;15.432;2023-02-26T15:39:23;1.63;;;1.20;;
16115;SDS011;8162;47.104;15.432;2023-02-26T15:42:27;3.73;;;1.77;;
16115;SDS011;8162;47.104;15.432;2023-02-26T15:48:35;2.83;;;2.33;;
16115;SDS011;8162;47.104;15.432;2023-02-26T15:51:41;1.73;;;1.30;;
16115;SDS011;8162;47.104;15.432;2023-02-26T15:54:45;1.47;;;1.33;;
16115;SDS011;8162;47.104;15.432;2023-02-26T15:57:47;2.23;;;1.73;;
16115;SDS011;8162;47.104;15.432;2023-02-26T16:00:53;1.37;;;1.27;;
16115;SDS011;8162;47.104;15.432;2023-02-26T16:04:00;2.67;;;0.90;;
16115;SDS011;8162;47.104;15.432;2023-02-26T16:07:03;1.20;;;1.03;;
16115;SDS011;8162;47.104;15.432;2023-02-26T16:10:05;0.70;;;0.70;;
16115;SDS011;8162;47.104;15.432;2023-02-26T16:13:13;0.93;;;0.90;;
16115;SDS011;8162;47.104;15.432;2023-02-26T16:16:31;0.80;;;0.77;;
16115;SDS011;8162;47.104;15.432;2023-02-26T16:22:36;1.10;;;1.00;;
16115;SDS011;8162;47.104;15.432;2023-02-26T16:25:40;2.13;;;1.07;;
16115;SDS011;8162;47.104;15.432;2023-02-26T16:28:43;1.00;;;1.00;;
16115;SDS011;8162;47.104;15.432;2023-02-26T16:31:47;0.80;;;0.80;;
16115;SDS011;8162;47.104;15.432;2023-02-26T16:34:51;0.70;;;0.70;;
16115;SDS011;8162;47.104;15.432;2023-02-26T16:37:53;0.97;;;0.80;;
16115;SDS011;8162;47.104;15.432;2023-02-26T16:40:56;1.10;;;1.00;;
16115;SDS011;8162;47.104;15.432;2023-02-26T16:43:58;1.00;;;0.70;;
16115;SDS011;8162;47.104;15.432;2023-02-26T16:47:00;0.70;;;0.70;;
16115;SDS011;8162;47.104;15.432;2023-02-26T16:50:02;1.53;;;1.00;;
16115;SDS011;8162;47.104;15.432;2023-02-26T16:53:04;1.20;;;1.10;;
16115;SDS011;8162;47.104;15.432;2023-02-26T16:56:08;1.00;;;1.00;;
16115;SDS011;8162;47.104;15.432;2023-02-26T16:59:20;1.13;;;0.83;;
16115;SDS011;8162;47.104;15.432;2023-02-26T17:02:26;1.63;;;1.37;;
16115;SDS011;8162;47.104;15.432;2023-02-26T17:05:32;2.10;;;1.83;;
16115;SDS011;8162;47.104;15.432;2023-02-26T17:08:35;3.27;;;1.63;;
16115;SDS011;8162;47.104;15.432;2023-02-26T17:11:41;4.77;;;2.63;;
16115;SDS011;8162;47.104;15.432;2023-02-26T17:14:46;8.30;;;4.70;;
16115;SDS011;8162;47.104;15.432;2023-02-26T17:17:49;5.97;;;3.67;;
16115;SDS011;8162;47.104;15.432;2023-02-26T17:20:50;6.10;;;3.47;;
16115;SDS011;8162;47.104;15.432;2023-02-26T17:23:53;4.67;;;2.70;;
16115;SDS011;8162;47.104;15.432;2023-02-26T17:26:54;3.20;;;2.30;;
16115;SDS011;8162;47.104;15.432;2023-02-26T17:29:56;2.67;;;2.00;;
16115;SDS011;8162;47.104;15.432;2023-02-26T17:32:58;1.50;;;1.23;;
16115;SDS011;8162;47.104;15.432;2023-02-26T17:36:01;1.20;;;1.10;;
16115;SDS011;8162;47.104;15.432;2023-02-26T17:39:03;3.33;;;2.20;;
16115;SDS011;8162;47.104;15.432;2023-02-26T17:42:12;2.43;;;1.50;;
16115;SDS011;8162;47.104;15.432;2023-02-26T17:45:15;2.43;;;1.80;;
16115;SDS011;8162;47.104;15.432;2023-02-26T17:48:16;2.47;;;1.80;;
16115;SDS011;8162;47.104;15.432;2023-02-26T17:51:18;1.73;;;1.43;;
16115;SDS011;8162;47.104;15.432;2023-02-26T17:54:19;2.00;;;1.80;;
16115;SDS011;8162;47.104;15.432;2023-02-26T17:57:20;1.90;;;1.70;;
16115;SDS011;8162;47.104;15.432;2023-02-26T18:00:22;2.00;;;1.80;;
16115;SDS011;8162;47.104;15.432;2023-02-26T18:03:23;1.77;;;1.67;;
16115;SDS011;8162;47.104;15.432;2023-02-26T18:06:25;2.03;;;1.70;;
16115;SDS011;8162;47.104;15.432;2023-02-26T18:09:30;1.47;;;1.30;;
16115;SDS011;8162;47.104;15.432;2023-02-26T18:12:31;1.80;;;1.30;;
16115;SDS011;8162;47.104;15.432;2023-02-26T18:15:32;1.80;;;1.43;;
16115;SDS011;8162;47.104;15.432;2023-02-26T18:18:36;2.97;;;1.73;;
16115;SDS011;8162;47.104;15.432;2023-02-26T18:21:38;2.17;;;1.60;;
16115;SDS011;8162;47.104;15.432;2023-02-26T18:24:39;1.47;;;1.20;;
16115;SDS011;8162;47.104;15.432;2023-02-26T18:27:41;2.57;;;1.20;;
16115;SDS011;8162;47.104;15.432;2023-02-26T18:30:45;1.57;;;1.47;;
16115;SDS011;8162;47.104;15.432;2023-02-26T18:33:49;2.00;;;1.30;;
16115;SDS011;8162;47.104;15.432;2023-02-26T18:36:50;1.40;;;1.30;;
16115;SDS011;8162;47.104;15.432;2023-02-26T18:39:52;2.33;;;1.70;;
16115;SDS011;8162;47.104;15.432;2023-02-26T18:42:54;1.63;;;1.53;;
16115;SDS011;8162;47.104;15.432;2023-02-26T18:45:56;1.60;;;1.50;;
16115;SDS011;8162;47.104;15.432;2023-02-26T18:49:00;2.53;;;1.60;;
16115;SDS011;8162;47.104;15.432;2023-02-26T18:52:02;2.13;;;1.50;;
16115;SDS011;8162;47.104;15.432;2023-02-26T18:55:03;1.10;;;1.00;;
16115;SDS011;8162;47.104;15.432;2023-02-26T18:58:05;1.50;;;1.30;;
16115;SDS011;8162;47.104;15.432;2023-02-26T19:01:06;1.50;;;1.37;;
16115;SDS011;8162;47.104;15.432;2023-02-26T19:04:08;4.00;;;2.13;;
16115;SDS011;8162;47.104;15.432;2023-02-26T19:07:09;1.57;;;1.47;;
16115;SDS011;8162;47.104;15.432;2023-02-26T19:10:11;1.93;;;1.73;;
16115;SDS011;8162;47.104;15.432;2023-02-26T19:13:14;1.77;;;1.60;;
16115;SDS011;8162;47.104;15.432;2023-02-26T19:16:15;3.00;;;1.80;;
16115;SDS011;8162;47.104;15.432;2023-02-26T19:19:16;3.07;;;1.70;;
16115;SDS011;8162;47.104;15.432;2023-02-26T19:22:18;2.03;;;1.63;;
16115;SDS011;8162;47.104;15.432;2023-02-26T19:25:19;2.37;;;2.00;;
16115;SDS011;8162;47.104;15.432;2023-02-26T19:28:23;3.57;;;1.97;;
16115;SDS011;8162;47.104;15.432;2023-02-26T19:31:24;2.60;;;1.90;;
16115;SDS011;8162;47.104;15.432;2023-02-26T19:34:25;1.83;;;1.63;;
16115;SDS011;8162;47.104;15.432;2023-02-26T19:37:27;4.40;;;2.73;;
16115;SDS011;8162;47.104;15.432;2023-02-26T19:40:28;4.23;;;3.23;;
16115;SDS011;8162;47.104;15.432;2023-02-26T19:43:30;4.20;;;3.00;;
16115;SDS011;8162;47.104;15.432;2023-02-26T19:46:31;3.23;;;2.40;;
16115;SDS011;8162;47.104;15.432;2023-02-26T19:49:33;8.83;;;3.97;;
16115;SDS011;8162;47.104;15.432;2023-02-26T19:52:34;6.27;;;3.30;;
16115;SDS011;8162;47.104;15.432;2023-02-26T19:55:36;5.50;;;3.30;;
16115;SDS011;8162;47.104;15.432;2023-02-26T19:58:37;4.53;;;3.40;;
16115;SDS011;8162;47.104;15.432;2023-02-26T20:01:39;5.20;;;4.07;;
16115;SDS011;8162;47.104;15.432;2023-02-26T20:04:41;5.93;;;4.23;;
16115;SDS011;8162;47.104;15.432;2023-02-26T20:07:43;4.40;;;4.00;;
16115;SDS011;8162;47.104;15.432;2023-02-26T20:10:44;3.50;;;3.20;;
16115;SDS011;8162;47.104;15.432;2023-02-26T20:13:46;5.63;;;3.10;;
16115;SDS011;8162;47.104;15.432;2023-02-26T20:16:48;3.00;;;2.60;;
16115;SDS011;8162;47.104;15.432;2023-02-26T20:19:49;3.87;;;2.83;;
16115;SDS011;8162;47.104;15.432;2023-02-26T20:22:50;3.77;;;2.67;;
16115;SDS011;8162;47.104;15.432;2023-02-26T20:25:55;3.47;;;2.50;;
16115;SDS011;8162;47.104;15.432;2023-02-26T20:28:57;3.73;;;3.17;;
16115;SDS011;8162;47.104;15.432;2023-02-26T20:31:58;4.40;;;3.00;;
16115;SDS011;8162;47.104;15.432;2023-02-26T20:35:00;4.10;;;3.03;;
16115;SDS011;8162;47.104;15.432;2023-02-26T20:38:01;3.40;;;3.10;;
16115;SDS011;8162;47.104;15.432;2023-02-26T20:41:02;3.37;;;2.50;;
16115;SDS011;8162;47.104;15.432;2023-02-26T20:44:04;3.60;;;3.17;;
16115;SDS011;8162;47.104;15.432;2023-02-26T20:47:05;3.70;;;2.90;;
16115;SDS011;8162;47.104;15.432;2023-02-26T20:50:07;5.07;;;3.30;;
16115;SDS011;8162;47.104;15.432;2023-02-26T20:53:08;3.27;;;2.90;;
16115;SDS011;8162;47.104;15.432;2023-02-26T20:56:10;4.73;;;3.50;;
16115;SDS011;8162;47.104;15.432;2023-02-26T20:59:11;3.97;;;2.93;;
16115;SDS011;8162;47.104;15.432;2023-02-26T21:02:13;3.60;;;3.13;;
16115;SDS011;8162;47.104;15.432;2023-02-26T21:05:15;3.40;;;3.10;;
16115;SDS011;8162;47.104;15.432;2023-02-26T21:08:16;4.50;;;2.90;;
16115;SDS011;8162;47.104;15.432;2023-02-26T21:11:17;6.37;;;3.53;;
16115;SDS011;8162;47.104;15.432;2023-02-26T21:14:19;2.70;;;2.50;;
16115;SDS011;8162;47.104;15.432;2023-02-26T21:17:21;3.03;;;2.40;;
16115;SDS011;8162;47.104;15.432;2023-02-26T21:20:22;4.27;;;2.80;;
16115;SDS011;8162;47.104;15.432;2023-02-26T21:23:23;5.90;;;3.47;;
16115;SDS011;8162;47.104;15.432;2023-02-26T21:26:25;4.80;;;3.50;;